Time;durP1;ratioP1;P1;durP2;ratioP2;P2;SDS_P1;SDS_P2;PMS_P1;PMS_P2;Temp;Humidity;BMP_temperature;BMP_pressure;BME280_temperature;BME280_humidity;BME280_pressure;Samples;Min_cycle;Max_cycle;Signal;HPM_P1;HPM_P2
2022/04/24 00:00:27;;;;;;;9.95;7.75;;;;;;;14.58;49.29;98758.06;4229539;28;20104;-60
2022/04/24 00:02:30;;;;;;;9.32;7.93;;;;;;;14.55;50.00;98750.31;4229821;28;20035;-60
2022/04/24 00:04:35;;;;;;;9.57;8.20;;;;;;;14.46;49.66;98752.28;4229816;28;20182;-61
2022/04/24 00:06:39;;;;;;;;;;;;;;;14.34;49.85;98754.38;4230310;28;20115;-63
2022/04/24 00:08:42;;;;;;;11.48;8.88;;;;;;;14.37;49.84;98757.78;4242331;28;19929;-61
2022/04/24 00:10:45;;;;;;;10.50;8.50;;;;;;;14.37;50.33;98755.16;4211594;28;20036;-60
2022/04/24 00:12:48;;;;;;;9.63;8.32;;;;;;;14.29;50.40;98752.78;4211550;28;20069;-60
2022/04/24 00:14:51;;;;;;;13.40;8.52;;;;;;;14.30;50.58;98748.41;4229919;28;20036;-60
2022/04/24 00:16:54;;;;;;;10.48;8.35;;;;;;;14.34;50.12;98754.38;4229518;28;20032;-61
2022/04/24 00:18:58;;;;;;;11.00;9.52;;;;;;;14.31;50.29;98755.34;4210708;28;20052;-61
2022/04/24 00:21:03;;;;;;;11.73;8.40;;;;;;;14.26;50.96;98752.84;4198184;28;20064;-60
2022/04/24 00:23:06;;;;;;;10.15;8.25;;;;;;;14.24;50.60;98746.81;4234710;27;20031;-60
2022/04/24 00:25:09;;;;;;;10.85;8.80;;;;;;;14.24;50.62;98741.59;4234623;27;20035;-60
2022/04/24 00:27:12;;;;;;;10.55;8.73;;;;;;;14.22;51.12;98745.13;4227341;28;20063;-60
2022/04/24 00:29:15;;;;;;;10.52;8.43;;;;;;;14.18;51.44;98740.88;4232629;28;20054;-58
2022/04/24 00:31:18;;;;;;;10.88;9.00;;;;;;;14.16;50.88;98743.53;4232941;28;20038;-60
2022/04/24 00:33:21;;;;;;;11.93;9.13;;;;;;;14.24;50.99;98745.97;4232993;28;20123;-60
2022/04/24 00:35:24;;;;;;;9.90;8.43;;;;;;;14.17;50.58;98734.81;4232925;28;20100;-60
2022/04/24 00:37:30;;;;;;;11.90;9.48;;;;;;;14.10;51.15;98730.66;4232873;28;20040;-60
2022/04/24 00:39:33;;;;;;;11.52;9.32;;;;;;;14.17;51.02;98726.97;4213839;28;20111;-60
2022/04/24 00:41:43;;;;;;;12.63;10.07;;;;;;;14.02;50.74;98730.00;4232033;28;20056;-60
2022/04/24 00:43:52;;;;;;;14.63;9.73;;;;;;;13.99;51.42;98735.31;4232709;28;20035;-60
2022/04/24 00:46:28;;;;;;;11.82;9.40;;;;;;;13.92;51.60;98730.28;4187121;28;20055;-60
2022/04/24 00:48:32;;;;;;;13.45;8.73;;;;;;;13.92;51.26;98721.59;4214450;28;20048;-60
2022/04/24 00:50:46;;;;;;;10.80;8.68;;;;;;;13.84;51.92;98729.63;4232712;28;20036;-60
2022/04/24 00:52:51;;;;;;;12.63;9.35;;;;;;;14.00;51.35;98724.81;4197607;28;20048;-60
2022/04/24 00:54:54;;;;;;;11.68;8.38;;;;;;;13.96;51.26;98721.47;4232581;28;20047;-60
2022/04/24 00:56:56;;;;;;;11.45;8.43;;;;;;;13.96;51.40;98724.06;4197422;28;20044;-60
2022/04/24 00:59:00;;;;;;;10.85;8.30;;;;;;;13.96;51.50;98721.47;4245054;27;20103;-60
2022/04/24 01:01:03;;;;;;;10.48;9.20;;;;;;;13.94;51.32;98719.78;4213747;28;20131;-59
2022/04/24 01:03:06;;;;;;;10.98;8.40;;;;;;;13.91;51.71;98722.47;4214220;28;20043;-60
2022/04/24 01:05:10;;;;;;;10.45;7.68;;;;;;;14.00;50.94;98723.97;4232395;28;20062;-60
2022/04/24 01:07:13;;;;;;;11.25;8.30;;;;;;;13.95;51.12;98722.34;4232268;28;20040;-60
2022/04/24 01:09:18;;;;;;;9.70;8.13;;;;;;;13.90;51.34;98719.03;4231970;28;20071;-60
2022/04/24 01:11:21;;;;;;;11.30;8.57;;;;;;;13.83;52.08;98727.03;4214351;28;20055;-60
2022/04/24 01:13:24;;;;;;;10.88;8.52;;;;;;;13.85;51.47;98723.50;4232306;28;20058;-60
2022/04/24 01:15:27;;;;;;;9.73;7.90;;;;;;;13.87;51.84;98713.88;4232215;28;20122;-60
2022/04/24 01:17:30;;;;;;;10.85;8.45;;;;;;;13.96;51.37;98715.38;4232164;28;20039;-60
2022/04/24 01:19:33;;;;;;;10.68;8.50;;;;;;;13.99;51.21;98707.47;4231833;28;20040;-60
2022/04/24 01:21:39;;;;;;;11.25;9.10;;;;;;;13.87;51.29;98708.66;4232195;28;20164;-60
2022/04/24 01:23:43;;;;;;;13.52;9.27;;;;;;;13.89;51.17;98706.84;4232191;28;20105;-60
2022/04/24 01:25:46;;;;;;;11.82;8.50;;;;;;;13.86;51.07;98706.94;4232175;28;20040;-60
2022/04/24 01:27:51;;;;;;;10.88;9.02;;;;;;;13.86;51.18;98706.09;4232083;28;20084;-60
2022/04/24 01:29:54;;;;;;;11.27;8.50;;;;;;;13.91;51.08;98712.03;4196355;28;20044;-60
2022/04/24 01:31:57;;;;;;;10.77;8.57;;;;;;;13.88;51.22;98712.97;4232187;28;20129;-60
2022/04/24 01:34:00;;;;;;;11.10;9.10;;;;;;;13.77;51.34;98712.41;4212621;28;20119;-61
2022/04/24 01:36:04;;;;;;;10.18;8.05;;;;;;;13.86;51.08;98706.94;4231873;28;20044;-60
2022/04/24 01:38:08;;;;;;;11.48;8.55;;;;;;;13.75;51.23;98708.97;4231899;28;20126;-60
2022/04/24 01:40:11;;;;;;;11.23;8.30;;;;;;;13.78;51.43;98706.28;4207040;28;20052;-60
2022/04/24 01:42:14;;;;;;;10.63;8.00;;;;;;;13.77;51.34;98717.66;4231824;28;20069;-60
2022/04/24 01:44:17;;;;;;;10.18;7.65;;;;;;;13.82;51.31;98722.75;4213598;28;20040;-60
2022/04/24 01:46:20;;;;;;;11.93;8.48;;;;;;;13.80;51.75;98720.16;4231694;28;20032;-60
2022/04/24 01:48:23;;;;;;;10.13;8.75;;;;;;;13.78;51.64;98716.72;4231588;28;20516;-60
2022/04/24 01:50:26;;;;;;;11.07;8.82;;;;;;;13.82;51.35;98713.13;4244329;27;20059;-60
2022/04/24 01:52:29;;;;;;;11.30;8.77;;;;;;;13.77;51.42;98712.41;4231659;28;20042;-60
2022/04/24 01:54:33;;;;;;;12.88;8.60;;;;;;;13.74;51.86;98704.66;4231538;28;20074;-61
2022/04/24 01:56:36;;;;;;;12.93;8.55;;;;;;;13.70;52.08;98708.25;4231691;28;20035;-60
2022/04/24 01:58:40;;;;;;;11.02;9.15;;;;;;;13.83;51.43;98703.53;4231329;28;20036;-60
2022/04/24 02:00:43;;;;;;;16.35;9.40;;;;;;;13.76;51.91;98705.47;4231461;28;20085;-60
2022/04/24 02:02:47;;;;;;;10.93;8.95;;;;;;;13.68;51.78;98696.97;4213578;28;20123;-60
2022/04/24 02:04:51;;;;;;;12.32;8.80;;;;;;;13.69;52.06;98696.09;4231445;28;20058;-60
2022/04/24 02:06:54;;;;;;;12.20;8.13;;;;;;;13.66;52.13;98699.63;4231448;28;20036;-60
2022/04/24 02:08:57;;;;;;;10.35;8.55;;;;;;;13.61;52.18;98693.69;4212946;28;20074;-60
2022/04/24 02:11:01;;;;;;;9.98;8.30;;;;;;;13.62;52.03;98692.78;4230891;28;20031;-60
2022/04/24 02:13:04;;;;;;;11.88;8.70;;;;;;;13.71;51.84;98692.56;4195255;28;20048;-60
2022/04/24 02:15:08;;;;;;;9.40;8.00;;;;;;;13.61;52.33;98693.69;4230830;28;20122;-60
2022/04/24 02:17:11;;;;;;;10.90;9.02;;;;;;;13.52;52.35;98697.41;4213139;28;20044;-60
2022/04/24 02:19:14;;;;;;;11.10;8.82;;;;;;;13.52;52.71;98694.78;4212640;28;20054;-61
2022/04/24 02:21:17;;;;;;;13.30;8.75;;;;;;;13.46;53.11;98689.72;4213031;28;20430;-60
2022/04/24 02:23:20;;;;;;;10.43;8.73;;;;;;;13.48;52.86;98693.16;4212943;28;20636;-60
2022/04/24 02:25:22;;;;;;;12.85;9.00;;;;;;;13.44;52.87;98694.97;4213119;28;20036;-60
2022/04/24 02:27:27;;;;;;;10.35;9.20;;;;;;;13.46;52.83;98692.31;4231077;28;20035;-60
2022/04/24 02:29:30;;;;;;;12.65;8.82;;;;;;;13.49;52.92;98697.50;4230551;28;20046;-61
2022/04/24 02:31:35;;;;;;;12.70;10.52;;;;;;;13.46;52.89;98697.53;4230994;28;20063;-60
2022/04/24 02:33:39;;;;;;;12.00;9.40;;;;;;;13.47;52.70;98695.81;4230912;28;20077;-62
2022/04/24 02:35:42;;;;;;;11.02;9.63;;;;;;;13.41;53.26;98694.22;4230916;28;20032;-60
2022/04/24 02:37:45;;;;;;;10.82;8.68;;;;;;;13.44;52.83;98689.75;4230859;28;20050;-60
2022/04/24 02:39:48;;;;;;;13.88;9.32;;;;;;;13.44;52.99;98689.75;4212295;28;20036;-60
2022/04/24 02:41:51;;;;;;;10.88;9.45;;;;;;;13.36;53.19;98696.06;4195082;28;20049;-61
2022/04/24 02:43:59;;;;;;;11.57;8.98;;;;;;;13.35;53.33;98689.16;4230341;28;20042;-61
2022/04/24 02:46:01;;;;;;;12.00;9.00;;;;;;;13.32;53.43;98694.44;4230393;28;20093;-61
2022/04/24 02:48:05;;;;;;;10.68;8.85;;;;;;;13.31;53.32;98703.16;4229657;28;20047;-61
2022/04/24 02:50:08;;;;;;;10.27;8.07;;;;;;;13.20;53.69;98704.28;4212249;28;20093;-61
2022/04/24 02:52:11;;;;;;;9.88;8.45;;;;;;;13.23;53.41;98717.25;4212489;28;20051;-61
2022/04/24 02:54:14;;;;;;;11.82;8.00;;;;;;;13.17;53.46;98717.41;4224320;28;20043;-60
2022/04/24 02:56:17;;;;;;;9.93;8.25;;;;;;;13.14;54.00;98727.91;4230495;28;20039;-60
2022/04/24 02:58:21;;;;;;;10.25;8.20;;;;;;;13.27;53.37;98731.94;4195555;28;20114;-60
2022/04/24 03:00:39;;;;;;;12.00;8.60;;;;;;;13.29;53.25;98731.88;4225200;28;20039;-60
2022/04/24 03:02:44;;;;;;;9.05;7.53;;;;;;;13.22;53.60;98741.59;4230564;28;20045;-60
2022/04/24 03:04:46;;;;;;;;;;;;;;;13.12;53.45;98740.13;4212885;28;20040;-60
2022/04/24 03:06:49;;;;;;;8.88;7.03;;;;;;;13.13;53.92;98744.44;4230449;28;19919;-60
2022/04/24 03:08:52;;;;;;;13.40;8.18;;;;;;;13.20;53.77;98745.13;4211915;28;20114;-62
2022/04/24 03:10:55;;;;;;;9.82;7.90;;;;;;;13.29;52.86;98734.50;4230400;28;20092;-61
2022/04/24 03:12:59;;;;;;;9.43;7.82;;;;;;;13.31;53.04;98744.91;4212212;28;20161;-60
2022/04/24 03:15:02;;;;;;;10.77;8.15;;;;;;;13.33;52.99;98748.31;4230107;28;20051;-61
2022/04/24 03:17:06;;;;;;;10.13;8.20;;;;;;;13.35;52.78;98747.41;4211966;28;20139;-60
2022/04/24 03:19:09;;;;;;;;;;;;;;;13.20;53.04;98751.25;4229526;28;20065;-60
2022/04/24 03:21:12;;;;;;;10.90;8.30;;;;;;;13.32;52.74;98754.44;4231921;27;19924;-60
2022/04/24 03:23:15;;;;;;;13.43;9.15;;;;;;;13.24;52.85;98750.28;4230165;28;20036;-60
2022/04/24 03:25:18;;;;;;;11.40;8.27;;;;;;;13.15;53.46;98760.91;4205882;28;20402;-61
2022/04/24 03:27:21;;;;;;;11.30;8.48;;;;;;;13.14;54.05;98753.13;4224309;28;20096;-60
2022/04/24 03:29:25;;;;;;;11.40;8.73;;;;;;;13.10;54.45;98753.19;4229678;28;20610;-60
2022/04/24 03:31:28;;;;;;;12.43;9.13;;;;;;;13.11;55.11;98756.66;4195304;28;20179;-60
2022/04/24 03:33:32;;;;;;;13.95;8.93;;;;;;;13.03;55.76;98754.22;4207403;28;20047;-60
2022/04/24 03:35:35;;;;;;;15.60;8.80;;;;;;;12.94;56.39;98759.69;4230081;28;20040;-60
2022/04/24 03:37:38;;;;;;;10.73;7.97;;;;;;;12.92;56.95;98766.66;4230159;28;20093;-60
2022/04/24 03:39:41;;;;;;;13.02;8.25;;;;;;;12.84;56.25;98760.78;4229716;28;20036;-60
2022/04/24 03:41:44;;;;;;;10.80;8.52;;;;;;;12.75;57.62;98767.06;4230000;28;20042;-60
2022/04/24 03:43:47;;;;;;;10.77;8.50;;;;;;;12.64;57.56;98762.06;4229964;28;20036;-59
2022/04/24 03:45:50;;;;;;;10.25;8.20;;;;;;;12.64;57.66;98761.22;4229938;28;20071;-59
2022/04/24 03:47:53;;;;;;;13.32;8.88;;;;;;;12.57;58.10;98766.56;4229928;28;20036;-61
2022/04/24 03:49:57;;;;;;;10.57;8.45;;;;;;;12.47;58.35;98767.66;4229411;28;20498;-61
2022/04/24 03:52:00;;;;;;;11.43;7.93;;;;;;;12.53;57.22;98771.88;4229876;28;20044;-60
2022/04/24 03:54:03;;;;;;;10.23;7.90;;;;;;;12.44;57.28;98772.94;4229619;28;20074;-60
2022/04/24 03:56:06;;;;;;;9.02;7.63;;;;;;;12.39;58.53;98773.00;4229816;28;20059;-61
2022/04/24 03:58:09;;;;;;;12.30;7.97;;;;;;;12.33;59.10;98773.13;4228561;28;20048;-61
2022/04/24 04:00:13;;;;;;;10.27;7.50;;;;;;;12.40;58.30;98766.06;4229783;28;20390;-60
2022/04/24 04:02:16;;;;;;;9.32;7.75;;;;;;;12.34;57.85;98767.03;4229855;28;20394;-60
2022/04/24 04:04:20;;;;;;;9.32;7.47;;;;;;;12.39;57.64;98769.53;4223507;28;20427;-60
2022/04/24 04:06:24;;;;;;;9.20;7.13;;;;;;;12.42;57.84;98768.63;4229750;28;20046;-61
2022/04/24 04:08:27;;;;;;;10.07;7.95;;;;;;;12.36;57.79;98767.84;4229686;28;20067;-60
2022/04/24 04:10:30;;;;;;;10.25;7.85;;;;;;;12.36;57.76;98769.59;4229443;28;20052;-60
2022/04/24 04:12:33;;;;;;;8.55;6.85;;;;;;;12.39;57.52;98769.53;4229655;28;20036;-60
2022/04/24 04:14:36;;;;;;;8.98;6.90;;;;;;;12.33;58.37;98772.28;4229660;28;20028;-60
2022/04/24 04:16:40;;;;;;;10.30;7.40;;;;;;;12.30;58.22;98762.78;4229638;28;20058;-60
2022/04/24 04:18:43;;;;;;;9.48;7.78;;;;;;;12.26;58.19;98768.94;4229381;28;20039;-60
2022/04/24 04:20:46;;;;;;;11.60;7.63;;;;;;;12.20;58.48;98772.50;4229649;28;20119;-60
2022/04/24 04:22:52;;;;;;;11.10;7.65;;;;;;;12.20;58.66;98774.28;4229649;28;20440;-62
2022/04/24 04:24:55;;;;;;;11.05;8.13;;;;;;;12.14;58.63;98769.19;4229613;28;20038;-60
2022/04/24 04:26:58;;;;;;;9.43;6.95;;;;;;;12.02;60.00;98775.50;4229681;28;20123;-60
2022/04/24 04:29:00;;;;;;;9.57;7.63;;;;;;;11.99;59.96;98776.41;4211057;28;20499;-60
2022/04/24 04:31:03;;;;;;;12.70;8.07;;;;;;;12.03;60.17;98779.78;4229648;28;20039;-60
2022/04/24 04:33:06;;;;;;;13.18;8.27;;;;;;;12.00;60.65;98772.91;4211479;28;20047;-59
2022/04/24 04:35:10;;;;;;;12.02;7.85;;;;;;;11.96;60.44;98780.78;4229233;28;20031;-60
2022/04/24 04:37:13;;;;;;;11.23;7.75;;;;;;;11.92;60.89;98776.53;4242520;28;20077;-60
2022/04/24 04:39:17;;;;;;;12.27;8.13;;;;;;;11.83;61.95;98781.00;4210573;28;20036;-60
2022/04/24 04:41:20;;;;;;;14.60;8.77;;;;;;;11.90;61.56;98780.88;4204985;28;20047;-60
2022/04/24 04:43:23;;;;;;;10.13;8.45;;;;;;;11.77;63.05;98781.13;4223132;28;20032;-59
2022/04/24 04:45:26;;;;;;;11.13;8.15;;;;;;;11.86;63.08;98782.69;4194742;28;20511;-63
2022/04/24 04:47:29;;;;;;;10.02;7.95;;;;;;;11.76;63.03;98779.38;4211367;28;20063;-60
2022/04/24 04:49:32;;;;;;;10.35;8.52;;;;;;;11.73;63.50;98779.44;4229057;28;20137;-60
2022/04/24 04:51:35;;;;;;;10.65;8.27;;;;;;;11.72;63.49;98785.53;4211337;28;20120;-60
2022/04/24 04:53:39;;;;;;;11.88;8.25;;;;;;;11.79;62.90;98788.91;4229415;28;20056;-60
2022/04/24 04:55:44;;;;;;;13.35;8.57;;;;;;;11.78;62.26;98792.38;4229333;28;20028;-59
2022/04/24 04:57:47;;;;;;;11.57;8.77;;;;;;;11.75;62.94;98805.44;4211481;28;20101;-59
2022/04/24 04:59:50;;;;;;;13.23;8.57;;;;;;;11.85;62.77;98801.78;4229055;28;20401;-60
2022/04/24 05:01:53;;;;;;;10.60;7.55;;;;;;;11.88;61.03;98799.13;4229555;28;20085;-60
2022/04/24 05:03:58;;;;;;;11.18;7.72;;;;;;;11.79;60.88;98805.38;4229449;28;20074;-60
2022/04/24 05:06:01;;;;;;;9.27;7.15;;;;;;;11.72;61.54;98803.75;4231555;28;20114;-60
2022/04/24 05:08:05;;;;;;;8.57;6.95;;;;;;;11.71;61.16;98809.88;4214162;28;20048;-60
2022/04/24 05:10:09;;;;;;;7.35;5.88;;;;;;;11.77;61.22;98811.47;4213964;28;20078;-60
2022/04/24 05:12:14;;;;;;;8.23;6.32;;;;;;;11.80;60.33;98798.44;4231071;28;20040;-60
2022/04/24 05:14:17;;;;;;;9.55;6.20;;;;;;;11.76;60.09;98807.19;4213414;28;20564;-60
2022/04/24 05:16:20;;;;;;;9.25;6.38;;;;;;;11.77;60.46;98807.16;4213772;28;20036;-61
2022/04/24 05:18:23;;;;;;;8.35;6.38;;;;;;;11.80;60.27;98816.66;4225527;28;20046;-61
2022/04/24 05:20:26;;;;;;;9.77;7.10;;;;;;;11.81;60.17;98808.81;4196970;28;20048;-60
2022/04/24 05:22:29;;;;;;;8.15;6.63;;;;;;;11.79;59.66;98814.94;4226449;28;20039;-60
2022/04/24 05:24:32;;;;;;;11.20;6.70;;;;;;;11.86;59.13;98820.00;4232134;28;20074;-60
2022/04/24 05:26:35;;;;;;;9.27;6.93;;;;;;;11.80;59.41;98822.72;4232071;28;20071;-60
2022/04/24 05:28:39;;;;;;;9.10;6.25;;;;;;;11.75;58.97;98823.66;4213899;28;20478;-60
2022/04/24 05:30:42;;;;;;;7.22;6.00;;;;;;;11.65;59.87;98823.84;4231949;28;20123;-60
2022/04/24 05:32:47;;;;;;;10.07;6.70;;;;;;;11.72;59.67;98818.53;4213930;28;20070;-60
2022/04/24 05:34:50;;;;;;;;;;;;;;;11.67;59.55;98831.63;4214271;28;20036;-59
2022/04/24 05:36:53;;;;;;;7.65;6.13;;;;;;;11.60;60.16;98836.06;4231761;28;19919;-60
2022/04/24 05:38:56;;;;;;;8.57;6.80;;;;;;;11.67;59.76;98842.03;4213580;28;20085;-60
2022/04/24 05:40:58;;;;;;;9.85;6.82;;;;;;;11.68;59.94;98838.53;4213767;28;20047;-59
2022/04/24 05:43:01;;;;;;;8.05;6.05;;;;;;;11.73;59.65;98847.13;4231522;28;20068;-60
2022/04/24 05:45:10;;;;;;;9.50;6.95;;;;;;;11.69;60.14;98843.69;4231737;28;20067;-60
2022/04/24 05:47:13;;;;;;;8.98;6.75;;;;;;;11.66;59.99;98845.50;4231433;28;20063;-61
2022/04/24 05:49:16;;;;;;;9.98;6.55;;;;;;;11.68;60.01;98843.72;4230182;28;20036;-60
2022/04/24 05:51:19;;;;;;;12.32;6.80;;;;;;;11.66;60.57;98845.50;4213551;28;20047;-59
2022/04/24 05:53:22;;;;;;;10.30;7.38;;;;;;;11.58;61.06;98844.75;4231700;28;20039;-60
2022/04/24 05:55:25;;;;;;;8.88;7.03;;;;;;;11.63;60.68;98851.63;4213470;28;20552;-60
2022/04/24 05:57:28;;;;;;;8.82;6.95;;;;;;;11.62;61.29;98843.84;4225414;28;20043;-60
2022/04/24 05:59:31;;;;;;;11.05;6.85;;;;;;;11.66;61.24;98850.72;4196230;28;20511;-60
2022/04/24 06:01:36;;;;;;;9.93;6.72;;;;;;;11.58;61.83;98853.44;4213414;28;20627;-59
2022/04/24 06:03:40;;;;;;;9.43;6.90;;;;;;;11.55;61.45;98855.22;4213283;28;20032;-60
2022/04/24 06:05:45;;;;;;;9.13;7.25;;;;;;;11.61;62.11;98853.41;4213380;28;20120;-59
2022/04/24 06:07:49;;;;;;;9.00;7.13;;;;;;;11.59;61.57;98854.31;4213281;28;20494;-60
2022/04/24 06:09:52;;;;;;;9.02;6.25;;;;;;;11.59;61.87;98856.91;4212953;28;20044;-59
2022/04/24 06:11:58;;;;;;;8.73;7.35;;;;;;;11.61;61.41;98852.50;4196575;28;20032;-60
2022/04/24 06:14:01;;;;;;;8.43;6.50;;;;;;;11.56;62.36;98856.94;4229601;28;20413;-60
2022/04/24 06:16:04;;;;;;;9.13;6.82;;;;;;;11.57;61.96;98861.28;4231231;28;20127;-59
2022/04/24 06:18:09;;;;;;;8.57;6.78;;;;;;;11.58;61.79;98857.78;4213212;28;20244;-60
2022/04/24 06:20:12;;;;;;;9.48;7.00;;;;;;;11.49;62.24;98859.66;4230886;28;20088;-60
2022/04/24 06:22:15;;;;;;;9.90;6.68;;;;;;;11.53;61.95;98861.34;4212967;28;20463;-60
2022/04/24 06:24:18;;;;;;;9.98;5.95;;;;;;;11.42;62.62;98863.22;4229858;28;20039;-60
2022/04/24 06:26:21;;;;;;;9.02;6.57;;;;;;;11.47;62.53;98860.56;4212175;28;20058;-59
2022/04/24 06:28:25;;;;;;;8.00;6.63;;;;;;;11.50;62.88;98868.31;4212888;28;20151;-59
2022/04/24 06:30:29;;;;;;;8.75;6.90;;;;;;;11.42;62.77;98864.94;4224296;28;20051;-60
2022/04/24 06:32:38;;;;;;;11.23;7.30;;;;;;;11.43;64.19;98869.28;4230856;28;20063;-60
2022/04/24 06:34:43;;;;;;;8.88;6.50;;;;;;;11.38;63.67;98871.97;4231027;28;20551;-59
2022/04/24 06:36:45;;;;;;;8.90;6.88;;;;;;;11.34;63.65;98870.28;4230880;28;20031;-60
2022/04/24 06:38:48;;;;;;;9.10;7.30;;;;;;;11.36;63.29;98876.34;4230507;28;20533;-59
2022/04/24 06:40:51;;;;;;;8.85;6.55;;;;;;;11.32;63.11;98877.25;4212452;28;20043;-59
2022/04/24 06:42:56;;;;;;;8.48;6.80;;;;;;;11.30;63.26;98871.19;4229788;28;20439;-59
2022/04/24 06:44:59;;;;;;;8.80;6.63;;;;;;;11.27;63.37;98876.44;4229228;28;20397;-59
2022/04/24 06:47:02;;;;;;;10.15;7.18;;;;;;;11.25;63.04;98878.22;4230040;28;20044;-59
2022/04/24 06:49:05;;;;;;;8.93;7.50;;;;;;;11.28;63.32;98878.19;4230411;28;20409;-59
2022/04/24 06:51:09;;;;;;;11.05;7.07;;;;;;;11.31;63.65;98885.94;4212654;28;20437;-59
2022/04/24 06:53:14;;;;;;;9.70;7.68;;;;;;;11.28;63.68;98880.78;4230338;28;20043;-59
2022/04/24 06:55:17;;;;;;;;;;;;;;;11.14;64.83;98889.66;4230439;28;20032;-59
2022/04/24 06:57:20;;;;;;;11.57;7.70;;;;;;;11.27;63.98;98882.53;4243343;27;20373;-59
2022/04/24 06:59:23;;;;;;;9.95;7.05;;;;;;;11.30;64.13;98884.22;4242938;27;20045;-59
2022/04/24 07:01:26;;;;;;;9.07;6.65;;;;;;;11.37;64.24;98880.63;4230576;28;20371;-59
2022/04/24 07:03:30;;;;;;;9.18;7.40;;;;;;;11.42;64.34;98886.66;4230493;28;20461;-59
2022/04/24 07:05:33;;;;;;;9.40;7.07;;;;;;;11.47;64.44;98882.22;4228263;28;20062;-59
2022/04/24 07:07:38;;;;;;;9.57;7.13;;;;;;;11.52;63.32;98884.75;4212168;28;20132;-59
2022/04/24 07:09:40;;;;;;;8.52;6.18;;;;;;;11.46;64.16;98883.13;4230066;28;20473;-62
2022/04/24 07:11:43;;;;;;;10.43;8.00;;;;;;;11.53;64.01;98889.09;4230219;28;20422;-62
2022/04/24 07:13:46;;;;;;;9.60;7.60;;;;;;;11.60;63.52;98889.88;4230209;28;20050;-63
2022/04/24 07:15:49;;;;;;;9.73;7.43;;;;;;;11.55;63.11;98889.06;4229505;28;20043;-60
2022/04/24 07:17:53;;;;;;;9.75;7.68;;;;;;;11.60;63.40;98893.31;4212201;28;20390;-60
2022/04/24 07:19:56;;;;;;;10.13;7.38;;;;;;;11.57;62.48;98897.72;4229954;28;20482;-60
2022/04/24 07:21:59;;;;;;;11.40;8.15;;;;;;;11.59;62.76;98904.59;4212360;28;20470;-60
2022/04/24 07:24:04;;;;;;;9.90;7.97;;;;;;;11.60;62.81;98906.31;4212060;28;20510;-60
2022/04/24 07:26:07;;;;;;;11.45;8.73;;;;;;;11.52;63.28;98903.84;4212171;28;20437;-60
2022/04/24 07:28:11;;;;;;;10.15;7.63;;;;;;;11.52;62.79;98901.25;4229676;28;20394;-60
2022/04/24 07:30:15;;;;;;;11.33;7.27;;;;;;;11.56;62.99;98907.25;4229601;28;20127;-60
2022/04/24 07:32:18;;;;;;;8.20;6.45;;;;;;;11.54;63.61;98901.22;4230156;28;20289;-60
2022/04/24 07:34:21;;;;;;;11.45;7.88;;;;;;;11.58;64.71;98904.63;4240995;27;20390;-60
2022/04/24 07:36:24;;;;;;;8.05;6.63;;;;;;;11.60;65.17;98908.09;4229849;28;20411;-60
2022/04/24 07:38:28;;;;;;;11.45;8.65;;;;;;;11.64;66.26;98899.34;4229574;28;20496;-60
2022/04/24 07:40:37;;;;;;;9.05;7.80;;;;;;;11.66;66.98;98897.56;4228928;28;20044;-59
2022/04/24 07:42:47;;;;;;;9.15;7.40;;;;;;;11.63;67.64;98902.81;4224474;28;20386;-60
2022/04/24 07:44:51;;;;;;;11.85;8.10;;;;;;;11.65;68.26;98908.84;4211740;28;20071;-58
2022/04/24 07:46:53;;;;;;;10.65;8.07;;;;;;;11.67;68.53;98904.50;4211737;28;20463;-61
2022/04/24 07:48:56;;;;;;;9.60;7.68;;;;;;;11.68;68.90;98908.81;4211264;28;20056;-61
2022/04/24 07:50:59;;;;;;;9.45;7.70;;;;;;;11.69;69.43;98910.53;4229686;28;20039;-58
2022/04/24 07:53:03;;;;;;;10.77;9.27;;;;;;;11.69;69.12;98914.00;4229562;28;20055;-58
2022/04/24 07:55:07;;;;;;;11.85;9.13;;;;;;;11.68;68.44;98909.69;4211420;28;20534;-58
2022/04/24 07:57:11;;;;;;;9.93;7.85;;;;;;;11.69;69.28;98913.13;4229635;28;20467;-61
2022/04/24 07:59:14;;;;;;;10.93;8.80;;;;;;;11.68;69.51;98914.00;4229248;28;20061;-58
2022/04/24 08:01:17;;;;;;;10.82;8.00;;;;;;;11.71;68.65;98908.78;4229683;28;20394;-58
2022/04/24 08:03:20;;;;;;;11.77;7.93;;;;;;;11.74;67.53;98913.94;4211678;28;20048;-58
2022/04/24 08:05:25;;;;;;;9.48;7.78;;;;;;;11.75;67.43;98912.19;4229322;28;20083;-59
2022/04/24 08:07:28;;;;;;;;;;;;;;;11.61;67.94;98910.66;4229151;28;20060;-58
2022/04/24 08:09:32;;;;;;;10.25;8.48;;;;;;;11.65;69.28;98921.88;4229418;28;20010;-59
2022/04/24 08:11:35;;;;;;;10.57;8.00;;;;;;;11.72;69.02;98914.84;4205165;28;20036;-58
2022/04/24 08:13:40;;;;;;;9.55;8.23;;;;;;;11.68;69.35;98917.50;4229534;28;20035;-58
2022/04/24 08:15:44;;;;;;;9.68;7.97;;;;;;;11.64;69.90;98925.38;4206322;28;20063;-58
2022/04/24 08:17:47;;;;;;;10.15;8.02;;;;;;;11.65;70.03;98929.69;4229753;28;20448;-59
2022/04/24 08:19:50;;;;;;;11.80;8.18;;;;;;;11.69;69.40;98928.75;4210870;28;20382;-59
2022/04/24 08:21:53;;;;;;;9.13;7.38;;;;;;;11.72;69.53;98931.31;4229573;28;20409;-59
2022/04/24 08:23:56;;;;;;;10.05;8.68;;;;;;;11.79;69.24;98934.69;4229382;28;20116;-59
2022/04/24 08:25:58;;;;;;;12.65;9.35;;;;;;;11.84;70.03;98932.88;4240472;27;20429;-59
2022/04/24 08:28:04;;;;;;;10.70;8.68;;;;;;;11.84;69.60;98932.88;4229301;28;20515;-59
2022/04/24 08:30:11;;;;;;;9.52;7.65;;;;;;;11.86;69.40;98936.31;4229129;28;20456;-62
2022/04/24 08:32:14;;;;;;;11.18;9.32;;;;;;;11.85;69.56;98940.66;4229548;28;20059;-61
2022/04/24 08:34:17;;;;;;;10.50;9.25;;;;;;;11.92;68.85;98941.44;4229500;28;20040;-61
2022/04/24 08:36:20;;;;;;;12.95;9.43;;;;;;;11.99;67.42;98944.84;4194706;28;20044;-63
2022/04/24 08:38:23;;;;;;;9.50;8.45;;;;;;;11.94;66.17;98936.22;4228840;28;20063;-63
2022/04/24 08:40:26;;;;;;;9.60;7.68;;;;;;;11.82;66.03;98945.06;4230434;28;20443;-58
2022/04/24 08:42:29;;;;;;;10.40;7.95;;;;;;;11.85;65.67;98943.25;4232485;28;20036;-57
2022/04/24 08:44:34;;;;;;;10.48;8.35;;;;;;;11.80;65.37;98945.09;4232239;28;20414;-57
2022/04/24 08:46:38;;;;;;;12.35;8.25;;;;;;;11.77;66.37;98946.84;4226154;28;20054;-57
2022/04/24 08:48:43;;;;;;;10.02;8.13;;;;;;;11.80;65.78;98937.28;4231962;28;20040;-57
2022/04/24 08:50:47;;;;;;;10.80;8.93;;;;;;;11.77;66.38;98950.34;4212687;28;20689;-57
2022/04/24 08:52:50;;;;;;;11.17;8.33;;;;;;;11.74;67.25;98950.38;4214645;28;20041;-58
2022/04/24 08:54:55;;;;;;;11.02;8.48;;;;;;;11.74;66.88;98949.50;4232665;28;20073;-57
2022/04/24 08:56:58;;;;;;;;;;;;;;;11.60;68.31;98961.00;4214695;28;20066;-57
2022/04/24 08:59:01;;;;;;;10.82;8.15;;;;;;;11.68;67.84;98953.06;4232056;28;19930;-57
2022/04/24 09:01:04;;;;;;;14.27;9.10;;;;;;;11.72;68.44;98954.75;4214220;28;20036;-57
2022/04/24 09:03:09;;;;;;;10.40;7.70;;;;;;;11.83;69.08;98957.19;4232433;28;20507;-56
2022/04/24 09:05:12;;;;;;;10.27;8.20;;;;;;;11.86;68.91;98951.94;4232388;28;20032;-57
2022/04/24 09:07:17;;;;;;;9.35;7.70;;;;;;;11.83;69.06;98960.66;4232227;28;20042;-56
2022/04/24 09:09:20;;;;;;;10.43;8.60;;;;;;;11.82;69.58;98961.53;4231944;28;20104;-57
2022/04/24 09:11:24;;;;;;;10.63;8.07;;;;;;;11.75;70.32;98959.91;4232619;28;20043;-56
2022/04/24 09:13:32;;;;;;;10.38;7.75;;;;;;;11.70;70.94;98956.53;4213873;28;20087;-57
2022/04/24 09:15:35;;;;;;;10.57;7.75;;;;;;;11.61;70.61;98954.03;4213676;28;20132;-57
2022/04/24 09:17:38;;;;;;;8.95;7.55;;;;;;;11.59;70.66;98950.59;4224956;28;20039;-57
2022/04/24 09:19:43;;;;;;;9.75;8.23;;;;;;;11.64;71.02;98959.22;4244659;27;20131;-57
2022/04/24 09:21:46;;;;;;;8.90;7.53;;;;;;;11.62;70.39;98953.16;4214069;28;20069;-57
2022/04/24 09:23:49;;;;;;;8.90;7.47;;;;;;;11.58;69.26;98964.50;4232002;28;20161;-56
2022/04/24 09:25:57;;;;;;;10.32;8.80;;;;;;;11.59;69.20;98958.41;4232040;28;20047;-57
2022/04/24 09:28:00;;;;;;;13.07;9.23;;;;;;;11.67;68.35;98961.78;4231995;28;20055;-57
2022/04/24 09:30:05;;;;;;;10.60;8.63;;;;;;;11.72;68.91;98959.94;4230752;28;20046;-57
2022/04/24 09:32:13;;;;;;;10.20;7.85;;;;;;;11.78;68.83;98956.41;4213737;28;20066;-56
2022/04/24 09:34:18;;;;;;;11.15;8.50;;;;;;;11.75;69.86;98965.09;4213805;28;20514;-56
2022/04/24 09:36:25;;;;;;;9.70;7.75;;;;;;;11.77;69.36;98957.28;4230943;28;20035;-56
2022/04/24 09:38:28;;;;;;;10.45;8.00;;;;;;;11.70;70.19;98959.97;4245485;27;20186;-56